sensor_id;sensor_type;location;lat;lon;timestamp;temperature;humidity
26503;DHT22;14177;51.520;6.764;2023-09-30T00:02:08;12.60;99.90
26503;DHT22;14177;51.520;6.764;2023-09-30T00:04:39;12.60;99.90
26503;DHT22;14177;51.520;6.764;2023-09-30T00:07:06;12.60;99.90
26503;DHT22;14177;51.520;6.764;2023-09-30T00:09:34;12.60;99.90
26503;DHT22;14177;51.520;6.764;2023-09-30T00:12:01;12.60;99.90
26503;DHT22;14177;51.520;6.764;2023-09-30T00:14:28;12.50;99.90
26503;DHT22;14177;51.520;6.764;2023-09-30T00:16:56;12.50;99.90
26503;DHT22;14177;51.520;6.764;2023-09-30T00:19:23;12.50;99.90
26503;DHT22;14177;51.520;6.764;2023-09-30T00:21:50;12.50;99.90
26503;DHT22;14177;51.520;6.764;2023-09-30T00:24:17;12.50;99.90
26503;DHT22;14177;51.520;6.764;2023-09-30T00:26:44;12.50;99.90
26503;DHT22;14177;51.520;6.764;2023-09-30T00:29:11;12.60;99.90
26503;DHT22;14177;51.520;6.764;2023-09-30T00:31:38;12.60;99.90
26503;DHT22;14177;51.520;6.764;2023-09-30T00:34:05;12.60;99.90
26503;DHT22;14177;51.520;6.764;2023-09-30T00:36:32;12.60;99.90
26503;DHT22;14177;51.520;6.764;2023-09-30T00:38:59;12.60;99.90
26503;DHT22;14177;51.520;6.764;2023-09-30T00:41:26;12.60;99.90
26503;DHT22;14177;51.520;6.764;2023-09-30T00:43:53;12.60;99.90
26503;DHT22;14177;51.520;6.764;2023-09-30T00:48:56;12.60;99.90
26503;DHT22;14177;51.520;6.764;2023-09-30T00:51:26;12.60;99.90
26503;DHT22;14177;51.520;6.764;2023-09-30T00:53:56;12.60;99.90
26503;DHT22;14177;51.520;6.764;2023-09-30T00:56:27;12.60;99.90
26503;DHT22;14177;51.520;6.764;2023-09-30T00:58:57;12.60;99.90
26503;DHT22;14177;51.520;6.764;2023-09-30T01:01:26;12.60;99.90
26503;DHT22;14177;51.520;6.764;2023-09-30T01:03:53;12.60;99.90
26503;DHT22;14177;51.520;6.764;2023-09-30T01:06:20;12.60;99.90
26503;DHT22;14177;51.520;6.764;2023-09-30T01:08:47;12.60;99.90
26503;DHT22;14177;51.520;6.764;2023-09-30T01:11:15;12.60;99.90
26503;DHT22;14177;51.520;6.764;2023-09-30T01:13:42;12.60;99.90
26503;DHT22;14177;51.520;6.764;2023-09-30T01:16:11;12.60;99.90
26503;DHT22;14177;51.520;6.764;2023-09-30T01:18:39;12.60;99.90
26503;DHT22;14177;51.520;6.764;2023-09-30T01:21:09;12.60;99.90
26503;DHT22;14177;51.520;6.764;2023-09-30T01:23:40;12.60;99.90
26503;DHT22;14177;51.520;6.764;2023-09-30T01:26:12;12.50;99.90
26503;DHT22;14177;51.520;6.764;2023-09-30T01:28:40;12.50;99.90
26503;DHT22;14177;51.520;6.764;2023-09-30T01:31:09;12.50;99.90
26503;DHT22;14177;51.520;6.764;2023-09-30T01:33:36;12.50;99.90
26503;DHT22;14177;51.520;6.764;2023-09-30T01:36:03;12.40;99.90
26503;DHT22;14177;51.520;6.764;2023-09-30T01:38:30;12.50;99.90
26503;DHT22;14177;51.520;6.764;2023-09-30T01:40:58;12.40;99.90
26503;DHT22;14177;51.520;6.764;2023-09-30T01:43:27;12.40;99.90
26503;DHT22;14177;51.520;6.764;2023-09-30T01:45:55;12.40;99.90
26503;DHT22;14177;51.520;6.764;2023-09-30T01:48:22;12.40;99.90
26503;DHT22;14177;51.520;6.764;2023-09-30T01:50:49;12.40;99.90
26503;DHT22;14177;51.520;6.764;2023-09-30T01:53:16;12.40;99.90
26503;DHT22;14177;51.520;6.764;2023-09-30T01:55:44;12.30;99.90
26503;DHT22;14177;51.520;6.764;2023-09-30T01:58:11;12.30;99.90
26503;DHT22;14177;51.520;6.764;2023-09-30T02:00:38;12.30;99.90
26503;DHT22;14177;51.520;6.764;2023-09-30T02:03:05;12.30;99.90
26503;DHT22;14177;51.520;6.764;2023-09-30T02:05:34;12.30;99.90
26503;DHT22;14177;51.520;6.764;2023-09-30T02:08:04;12.20;99.90
26503;DHT22;14177;51.520;6.764;2023-09-30T02:10:33;12.10;99.90
26503;DHT22;14177;51.520;6.764;2023-09-30T02:13:00;12.10;99.90
26503;DHT22;14177;51.520;6.764;2023-09-30T02:15:28;12.10;99.90
26503;DHT22;14177;51.520;6.764;2023-09-30T02:17:55;12.10;99.90
26503;DHT22;14177;51.520;6.764;2023-09-30T02:20:23;12.10;99.90
26503;DHT22;14177;51.520;6.764;2023-09-30T02:22:52;12.00;99.90
26503;DHT22;14177;51.520;6.764;2023-09-30T02:25:21;12.00;99.90
26503;DHT22;14177;51.520;6.764;2023-09-30T02:27:50;12.00;99.90
26503;DHT22;14177;51.520;6.764;2023-09-30T02:30:17;11.90;99.90
26503;DHT22;14177;51.520;6.764;2023-09-30T02:32:44;11.90;99.90
26503;DHT22;14177;51.520;6.764;2023-09-30T02:35:13;11.90;99.90
26503;DHT22;14177;51.520;6.764;2023-09-30T02:37:42;11.90;99.90
26503;DHT22;14177;51.520;6.764;2023-09-30T02:40:10;11.80;99.90
26503;DHT22;14177;51.520;6.764;2023-09-30T02:42:38;11.80;99.90
26503;DHT22;14177;51.520;6.764;2023-09-30T02:45:06;11.80;99.90
26503;DHT22;14177;51.520;6.764;2023-09-30T02:47:35;11.80;99.90
26503;DHT22;14177;51.520;6.764;2023-09-30T02:50:06;11.80;99.90
26503;DHT22;14177;51.520;6.764;2023-09-30T02:52:35;11.70;99.90
26503;DHT22;14177;51.520;6.764;2023-09-30T02:55:03;11.70;99.90
26503;DHT22;14177;51.520;6.764;2023-09-30T02:57:30;11.70;99.90
26503;DHT22;14177;51.520;6.764;2023-09-30T02:59:58;11.70;99.90
26503;DHT22;14177;51.520;6.764;2023-09-30T03:02:27;11.70;99.90
26503;DHT22;14177;51.520;6.764;2023-09-30T03:04:54;11.70;99.90
26503;DHT22;14177;51.520;6.764;2023-09-30T03:07:25;11.70;99.90
26503;DHT22;14177;51.520;6.764;2023-09-30T03:09:51;11.60;99.90
26503;DHT22;14177;51.520;6.764;2023-09-30T03:12:21;11.60;99.90
26503;DHT22;14177;51.520;6.764;2023-09-30T03:14:48;11.60;99.90
26503;DHT22;14177;51.520;6.764;2023-09-30T03:17:15;11.60;99.90
26503;DHT22;14177;51.520;6.764;2023-09-30T03:19:42;11.60;99.90
26503;DHT22;14177;51.520;6.764;2023-09-30T03:22:08;11.60;99.90
26503;DHT22;14177;51.520;6.764;2023-09-30T03:24:39;11.60;99.90
26503;DHT22;14177;51.520;6.764;2023-09-30T03:27:07;11.60;99.90
26503;DHT22;14177;51.520;6.764;2023-09-30T03:29:38;11.50;99.90
26503;DHT22;14177;51.520;6.764;2023-09-30T03:32:05;11.50;99.90
26503;DHT22;14177;51.520;6.764;2023-09-30T03:34:34;11.50;99.90
26503;DHT22;14177;51.520;6.764;2023-09-30T03:37:03;11.50;99.90
26503;DHT22;14177;51.520;6.764;2023-09-30T03:39:33;11.50;99.90
26503;DHT22;14177;51.520;6.764;2023-09-30T03:42:00;11.50;99.90
26503;DHT22;14177;51.520;6.764;2023-09-30T03:44:28;11.50;99.90
26503;DHT22;14177;51.520;6.764;2023-09-30T03:46:55;11.50;99.90
26503;DHT22;14177;51.520;6.764;2023-09-30T03:49:24;11.50;99.90
26503;DHT22;14177;51.520;6.764;2023-09-30T03:51:52;11.50;99.90
26503;DHT22;14177;51.520;6.764;2023-09-30T03:54:20;11.50;99.90
26503;DHT22;14177;51.520;6.764;2023-09-30T03:56:48;11.40;99.90
26503;DHT22;14177;51.520;6.764;2023-09-30T03:59:15;11.40;99.90
26503;DHT22;14177;51.520;6.764;2023-09-30T04:01:42;11.40;99.90
26503;DHT22;14177;51.520;6.764;2023-09-30T04:04:10;11.40;99.90
26503;DHT22;14177;51.520;6.764;2023-09-30T04:06:38;11.40;99.90
26503;DHT22;14177;51.520;6.764;2023-09-30T04:09:08;11.40;99.90
26503;DHT22;14177;51.520;6.764;2023-09-30T04:11:38;11.30;99.90
26503;DHT22;14177;51.520;6.764;2023-09-30T04:14:07;11.30;99.90
26503;DHT22;14177;51.520;6.764;2023-09-30T04:16:35;11.30;99.90
26503;DHT22;14177;51.520;6.764;2023-09-30T04:19:04;11.30;99.90
26503;DHT22;14177;51.520;6.764;2023-09-30T04:21:31;11.30;99.90
26503;DHT22;14177;51.520;6.764;2023-09-30T04:24:01;11.30;99.90
26503;DHT22;14177;51.520;6.764;2023-09-30T04:26:28;11.30;99.90
26503;DHT22;14177;51.520;6.764;2023-09-30T04:28:55;11.30;99.90
26503;DHT22;14177;51.520;6.764;2023-09-30T04:31:23;11.30;99.90
26503;DHT22;14177;51.520;6.764;2023-09-30T04:33:50;11.30;99.90
26503;DHT22;14177;51.520;6.764;2023-09-30T04:36:19;11.20;99.90
26503;DHT22;14177;51.520;6.764;2023-09-30T04:38:46;11.20;99.90
26503;DHT22;14177;51.520;6.764;2023-09-30T04:41:14;11.20;99.90
26503;DHT22;14177;51.520;6.764;2023-09-30T04:43:42;11.20;99.90
26503;DHT22;14177;51.520;6.764;2023-09-30T04:46:10;11.10;99.90
26503;DHT22;14177;51.520;6.764;2023-09-30T04:48:40;11.10;99.90
26503;DHT22;14177;51.520;6.764;2023-09-30T04:51:08;11.10;99.90
26503;DHT22;14177;51.520;6.764;2023-09-30T04:53:37;11.10;99.90
26503;DHT22;14177;51.520;6.764;2023-09-30T04:56:04;11.10;99.90
26503;DHT22;14177;51.520;6.764;2023-09-30T04:58:31;11.10;99.90
26503;DHT22;14177;51.520;6.764;2023-09-30T05:00:58;11.10;99.90
26503;DHT22;14177;51.520;6.764;2023-09-30T05:03:25;11.10;99.90
26503;DHT22;14177;51.520;6.764;2023-09-30T05:05:53;11.00;99.90
26503;DHT22;14177;51.520;6.764;2023-09-30T05:08:23;11.00;99.90
26503;DHT22;14177;51.520;6.764;2023-09-30T05:10:51;11.00;99.90
26503;DHT22;14177;51.520;6.764;2023-09-30T05:13:22;11.00;99.90
26503;DHT22;14177;51.520;6.764;2023-09-30T05:15:52;11.00;99.90
26503;DHT22;14177;51.520;6.764;2023-09-30T05:18:20;11.00;99.90
26503;DHT22;14177;51.520;6.764;2023-09-30T05:20:47;11.00;99.90
26503;DHT22;14177;51.520;6.764;2023-09-30T05:23:16;11.00;99.90
26503;DHT22;14177;51.520;6.764;2023-09-30T05:25:44;11.00;99.90
26503;DHT22;14177;51.520;6.764;2023-09-30T05:28:11;11.00;99.90
26503;DHT22;14177;51.520;6.764;2023-09-30T05:30:40;11.00;99.90
26503;DHT22;14177;51.520;6.764;2023-09-30T05:33:07;10.90;99.90
26503;DHT22;14177;51.520;6.764;2023-09-30T05:35:36;10.90;99.90
26503;DHT22;14177;51.520;6.764;2023-09-30T05:38:04;10.90;99.90
26503;DHT22;14177;51.520;6.764;2023-09-30T05:40:32;10.90;99.90
26503;DHT22;14177;51.520;6.764;2023-09-30T05:43:00;10.90;99.90
26503;DHT22;14177;51.520;6.764;2023-09-30T05:45:30;10.90;99.90
26503;DHT22;14177;51.520;6.764;2023-09-30T05:48:04;10.90;99.90
26503;DHT22;14177;51.520;6.764;2023-09-30T05:50:34;11.00;99.90
26503;DHT22;14177;51.520;6.764;2023-09-30T05:53:03;11.00;99.90
26503;DHT22;14177;51.520;6.764;2023-09-30T05:55:31;11.00;99.90
26503;DHT22;14177;51.520;6.764;2023-09-30T05:57:59;11.00;99.90
26503;DHT22;14177;51.520;6.764;2023-09-30T06:00:27;11.00;99.90
26503;DHT22;14177;51.520;6.764;2023-09-30T06:02:58;11.00;99.90
26503;DHT22;14177;51.520;6.764;2023-09-30T06:05:26;11.10;99.90
26503;DHT22;14177;51.520;6.764;2023-09-30T06:07:58;11.10;99.90
26503;DHT22;14177;51.520;6.764;2023-09-30T06:10:26;11.30;99.90
26503;DHT22;14177;51.520;6.764;2023-09-30T06:12:53;11.30;99.90
26503;DHT22;14177;51.520;6.764;2023-09-30T06:15:25;11.40;99.90
26503;DHT22;14177;51.520;6.764;2023-09-30T06:17:54;11.50;99.90
26503;DHT22;14177;51.520;6.764;2023-09-30T06:20:22;11.50;99.90
26503;DHT22;14177;51.520;6.764;2023-09-30T06:22:53;11.70;99.90
26503;DHT22;14177;51.520;6.764;2023-09-30T06:25:23;11.90;99.90
26503;DHT22;14177;51.520;6.764;2023-09-30T06:27:51;12.10;99.90
26503;DHT22;14177;51.520;6.764;2023-09-30T06:30:19;12.20;99.90
26503;DHT22;14177;51.520;6.764;2023-09-30T06:32:48;12.40;99.90
26503;DHT22;14177;51.520;6.764;2023-09-30T06:35:15;12.50;99.90
26503;DHT22;14177;51.520;6.764;2023-09-30T06:37:42;12.60;99.90
26503;DHT22;14177;51.520;6.764;2023-09-30T06:40:12;12.60;99.90
26503;DHT22;14177;51.520;6.764;2023-09-30T06:42:40;12.70;99.90
26503;DHT22;14177;51.520;6.764;2023-09-30T06:45:08;12.80;99.90
26503;DHT22;14177;51.520;6.764;2023-09-30T06:47:37;12.90;99.90
26503;DHT22;14177;51.520;6.764;2023-09-30T06:50:10;13.00;99.90
26503;DHT22;14177;51.520;6.764;2023-09-30T06:52:40;13.00;99.90
26503;DHT22;14177;51.520;6.764;2023-09-30T06:55:09;13.20;99.90
26503;DHT22;14177;51.520;6.764;2023-09-30T06:57:37;13.30;99.90
26503;DHT22;14177;51.520;6.764;2023-09-30T07:00:08;13.30;99.90
26503;DHT22;14177;51.520;6.764;2023-09-30T07:02:38;13.40;99.90
26503;DHT22;14177;51.520;6.764;2023-09-30T07:05:14;13.60;99.90
26503;DHT22;14177;51.520;6.764;2023-09-30T07:07:42;13.60;99.90
26503;DHT22;14177;51.520;6.764;2023-09-30T07:10:12;13.70;99.90
26503;DHT22;14177;51.520;6.764;2023-09-30T07:12:40;13.80;99.90
26503;DHT22;14177;51.520;6.764;2023-09-30T07:15:07;13.90;99.90
26503;DHT22;14177;51.520;6.764;2023-09-30T07:17:36;14.10;99.90
26503;DHT22;14177;51.520;6.764;2023-09-30T07:20:04;14.20;99.90
26503;DHT22;14177;51.520;6.764;2023-09-30T07:22:33;14.40;99.90
26503;DHT22;14177;51.520;6.764;2023-09-30T07:25:18;14.50;99.90
26503;DHT22;14177;51.520;6.764;2023-09-30T07:27:45;14.80;99.90
26503;DHT22;14177;51.520;6.764;2023-09-30T07:30:15;15.00;99.90
26503;DHT22;14177;51.520;6.764;2023-09-30T07:32:43;15.20;99.90
26503;DHT22;14177;51.520;6.764;2023-09-30T07:35:12;15.40;99.90
26503;DHT22;14177;51.520;6.764;2023-09-30T07:37:42;15.70;99.90
26503;DHT22;14177;51.520;6.764;2023-09-30T07:40:12;16.00;99.90
26503;DHT22;14177;51.520;6.764;2023-09-30T07:42:40;16.10;99.90
26503;DHT22;14177;51.520;6.764;2023-09-30T07:45:08;16.10;99.90
26503;DHT22;14177;51.520;6.764;2023-09-30T07:47:36;16.30;99.90
26503;DHT22;14177;51.520;6.764;2023-09-30T07:50:03;16.50;99.90
26503;DHT22;14177;51.520;6.764;2023-09-30T07:52:36;16.60;99.90
26503;DHT22;14177;51.520;6.764;2023-09-30T07:55:03;16.80;99.90
26503;DHT22;14177;51.520;6.764;2023-09-30T07:57:32;17.00;99.90
26503;DHT22;14177;51.520;6.764;2023-09-30T08:00:00;17.30;99.90
26503;DHT22;14177;51.520;6.764;2023-09-30T08:02:35;17.40;99.90
26503;DHT22;14177;51.520;6.764;2023-09-30T08:05:05;17.30;99.90
26503;DHT22;14177;51.520;6.764;2023-09-30T08:07:33;17.30;99.90
26503;DHT22;14177;51.520;6.764;2023-09-30T08:10:02;17.50;99.90
26503;DHT22;14177;51.520;6.764;2023-09-30T08:12:33;17.50;99.90
26503;DHT22;14177;51.520;6.764;2023-09-30T08:15:00;17.70;99.90
26503;DHT22;14177;51.520;6.764;2023-09-30T08:17:30;18.00;99.90
26503;DHT22;14177;51.520;6.764;2023-09-30T08:19:57;18.10;99.90
26503;DHT22;14177;51.520;6.764;2023-09-30T08:22:24;18.10;99.90
26503;DHT22;14177;51.520;6.764;2023-09-30T08:24:54;18.20;99.90
26503;DHT22;14177;51.520;6.764;2023-09-30T08:27:22;18.40;99.90
26503;DHT22;14177;51.520;6.764;2023-09-30T08:29:51;18.70;99.90
26503;DHT22;14177;51.520;6.764;2023-09-30T08:32:18;19.00;99.90
26503;DHT22;14177;51.520;6.764;2023-09-30T08:34:45;19.00;99.90
26503;DHT22;14177;51.520;6.764;2023-09-30T08:37:12;19.10;99.90
26503;DHT22;14177;51.520;6.764;2023-09-30T08:39:39;19.40;99.90
26503;DHT22;14177;51.520;6.764;2023-09-30T08:42:10;19.60;99.90
26503;DHT22;14177;51.520;6.764;2023-09-30T08:44:38;19.90;99.90
26503;DHT22;14177;51.520;6.764;2023-09-30T08:47:06;19.90;99.90
26503;DHT22;14177;51.520;6.764;2023-09-30T08:49:41;20.00;99.90
26503;DHT22;14177;51.520;6.764;2023-09-30T08:52:11;19.90;99.90
26503;DHT22;14177;51.520;6.764;2023-09-30T08:54:40;20.40;99.90
26503;DHT22;14177;51.520;6.764;2023-09-30T08:57:09;20.60;99.90
26503;DHT22;14177;51.520;6.764;2023-09-30T08:59:38;20.70;99.90
26503;DHT22;14177;51.520;6.764;2023-09-30T09:02:08;20.60;99.90
26503;DHT22;14177;51.520;6.764;2023-09-30T09:04:40;20.40;99.90
26503;DHT22;14177;51.520;6.764;2023-09-30T09:07:07;20.80;99.90
26503;DHT22;14177;51.520;6.764;2023-09-30T09:09:35;20.70;99.90
26503;DHT22;14177;51.520;6.764;2023-09-30T09:12:02;20.70;99.90
26503;DHT22;14177;51.520;6.764;2023-09-30T09:14:39;20.30;99.90
26503;DHT22;14177;51.520;6.764;2023-09-30T09:17:08;20.90;99.90
26503;DHT22;14177;51.520;6.764;2023-09-30T09:19:37;21.10;99.90
26503;DHT22;14177;51.520;6.764;2023-09-30T09:22:04;21.40;99.90
26503;DHT22;14177;51.520;6.764;2023-09-30T09:27:10;21.40;99.90
26503;DHT22;14177;51.520;6.764;2023-09-30T09:29:39;21.80;99.90
26503;DHT22;14177;51.520;6.764;2023-09-30T09:32:16;22.10;99.90
26503;DHT22;14177;51.520;6.764;2023-09-30T09:34:44;21.90;99.90
26503;DHT22;14177;51.520;6.764;2023-09-30T09:37:22;22.10;99.90
26503;DHT22;14177;51.520;6.764;2023-09-30T09:42:31;23.30;99.90
26503;DHT22;14177;51.520;6.764;2023-09-30T09:45:04;23.30;99.90
26503;DHT22;14177;51.520;6.764;2023-09-30T09:47:33;22.30;99.90
26503;DHT22;14177;51.520;6.764;2023-09-30T09:50:04;21.70;99.90
26503;DHT22;14177;51.520;6.764;2023-09-30T09:52:35;21.50;99.90
26503;DHT22;14177;51.520;6.764;2023-09-30T09:55:05;22.00;99.90
26503;DHT22;14177;51.520;6.764;2023-09-30T09:57:33;22.20;99.90
26503;DHT22;14177;51.520;6.764;2023-09-30T10:00:02;22.00;99.90
26503;DHT22;14177;51.520;6.764;2023-09-30T10:02:32;21.50;99.90
26503;DHT22;14177;51.520;6.764;2023-09-30T10:04:59;21.30;99.90
26503;DHT22;14177;51.520;6.764;2023-09-30T10:07:34;21.70;99.90
26503;DHT22;14177;51.520;6.764;2023-09-30T10:10:09;21.60;99.90
26503;DHT22;14177;51.520;6.764;2023-09-30T10:12:43;21.50;99.90
26503;DHT22;14177;51.520;6.764;2023-09-30T10:18:05;20.90;99.90
26503;DHT22;14177;51.520;6.764;2023-09-30T10:20:42;20.60;99.90
26503;DHT22;14177;51.520;6.764;2023-09-30T10:28:41;20.10;99.90
26503;DHT22;14177;51.520;6.764;2023-09-30T10:31:18;19.80;99.90
26503;DHT22;14177;51.520;6.764;2023-09-30T10:36:33;19.60;99.90
26503;DHT22;14177;51.520;6.764;2023-09-30T10:39:14;19.30;99.90
26503;DHT22;14177;51.520;6.764;2023-09-30T10:46:58;19.20;99.90
26503;DHT22;14177;51.520;6.764;2023-09-30T10:49:30;19.20;99.90
26503;DHT22;14177;51.520;6.764;2023-09-30T10:52:02;19.10;99.90
26503;DHT22;14177;51.520;6.764;2023-09-30T10:54:31;19.20;99.90
26503;DHT22;14177;51.520;6.764;2023-09-30T10:57:00;19.20;99.90
26503;DHT22;14177;51.520;6.764;2023-09-30T10:59:28;19.30;99.90
26503;DHT22;14177;51.520;6.764;2023-09-30T11:02:02;19.30;99.90
26503;DHT22;14177;51.520;6.764;2023-09-30T11:04:30;19.30;99.90
26503;DHT22;14177;51.520;6.764;2023-09-30T11:06:58;19.30;99.90
26503;DHT22;14177;51.520;6.764;2023-09-30T11:09:29;19.40;99.90
26503;DHT22;14177;51.520;6.764;2023-09-30T11:11:56;19.40;99.90
26503;DHT22;14177;51.520;6.764;2023-09-30T11:14:25;19.60;99.90
26503;DHT22;14177;51.520;6.764;2023-09-30T11:17:01;19.70;99.90
26503;DHT22;14177;51.520;6.764;2023-09-30T11:19:46;19.70;99.90
26503;DHT22;14177;51.520;6.764;2023-09-30T11:22:14;19.60;99.90
26503;DHT22;14177;51.520;6.764;2023-09-30T11:24:42;19.70;99.90
26503;DHT22;14177;51.520;6.764;2023-09-30T11:27:10;19.80;99.90
26503;DHT22;14177;51.520;6.764;2023-09-30T11:29:37;19.80;99.90
26503;DHT22;14177;51.520;6.764;2023-09-30T11:32:04;19.70;99.90
26503;DHT22;14177;51.520;6.764;2023-09-30T11:34:35;20.00;99.90
26503;DHT22;14177;51.520;6.764;2023-09-30T11:37:04;19.90;99.90
26503;DHT22;14177;51.520;6.764;2023-09-30T11:39:32;20.10;99.90
26503;DHT22;14177;51.520;6.764;2023-09-30T11:42:00;20.20;99.90
26503;DHT22;14177;51.520;6.764;2023-09-30T11:44:28;20.30;99.90
26503;DHT22;14177;51.520;6.764;2023-09-30T11:47:01;20.20;99.90
26503;DHT22;14177;51.520;6.764;2023-09-30T11:49:36;20.10;99.90
26503;DHT22;14177;51.520;6.764;2023-09-30T11:52:09;20.20;99.90
26503;DHT22;14177;51.520;6.764;2023-09-30T11:57:09;20.30;99.90
26503;DHT22;14177;51.520;6.764;2023-09-30T11:59:38;20.20;99.90
26503;DHT22;14177;51.520;6.764;2023-09-30T12:02:08;20.30;99.90
26503;DHT22;14177;51.520;6.764;2023-09-30T12:04:42;20.40;99.90
26503;DHT22;14177;51.520;6.764;2023-09-30T12:07:11;20.60;99.90
26503;DHT22;14177;51.520;6.764;2023-09-30T12:09:38;21.10;99.90
26503;DHT22;14177;51.520;6.764;2023-09-30T12:12:07;21.60;99.90
26503;DHT22;14177;51.520;6.764;2023-09-30T12:14:37;22.00;99.90
26503;DHT22;14177;51.520;6.764;2023-09-30T12:17:04;22.60;99.90
26503;DHT22;14177;51.520;6.764;2023-09-30T12:19:31;22.60;99.90
26503;DHT22;14177;51.520;6.764;2023-09-30T12:21:58;23.20;99.90
26503;DHT22;14177;51.520;6.764;2023-09-30T12:24:25;23.70;98.90
26503;DHT22;14177;51.520;6.764;2023-09-30T12:26:54;23.90;96.40
26503;DHT22;14177;51.520;6.764;2023-09-30T12:29:22;23.50;96.70
26503;DHT22;14177;51.520;6.764;2023-09-30T12:31:53;23.40;95.40
26503;DHT22;14177;51.520;6.764;2023-09-30T12:34:21;23.50;96.20
26503;DHT22;14177;51.520;6.764;2023-09-30T12:36:54;23.30;97.40
26503;DHT22;14177;51.520;6.764;2023-09-30T12:39:22;23.30;98.40
26503;DHT22;14177;51.520;6.764;2023-09-30T12:41:53;22.80;99.00
26503;DHT22;14177;51.520;6.764;2023-09-30T12:44:20;22.60;99.90
26503;DHT22;14177;51.520;6.764;2023-09-30T12:46:47;22.90;99.90
26503;DHT22;14177;51.520;6.764;2023-09-30T12:49:15;22.60;97.90
26503;DHT22;14177;51.520;6.764;2023-09-30T12:51:42;22.40;99.90
26503;DHT22;14177;51.520;6.764;2023-09-30T12:54:09;22.40;99.70
26503;DHT22;14177;51.520;6.764;2023-09-30T12:56:37;22.30;99.60
26503;DHT22;14177;51.520;6.764;2023-09-30T12:59:04;22.00;99.90
26503;DHT22;14177;51.520;6.764;2023-09-30T13:01:32;22.00;99.90
26503;DHT22;14177;51.520;6.764;2023-09-30T13:04:02;22.20;99.90
26503;DHT22;14177;51.520;6.764;2023-09-30T13:06:30;22.30;99.90
26503;DHT22;14177;51.520;6.764;2023-09-30T13:08:59;22.60;99.90
26503;DHT22;14177;51.520;6.764;2023-09-30T13:11:28;22.80;99.90
26503;DHT22;14177;51.520;6.764;2023-09-30T13:13:55;22.60;99.90
26503;DHT22;14177;51.520;6.764;2023-09-30T13:16:22;22.50;99.90
26503;DHT22;14177;51.520;6.764;2023-09-30T13:18:50;22.50;99.90
26503;DHT22;14177;51.520;6.764;2023-09-30T13:21:19;22.30;99.90
26503;DHT22;14177;51.520;6.764;2023-09-30T13:23:46;22.00;99.90
26503;DHT22;14177;51.520;6.764;2023-09-30T13:26:13;22.00;99.90
26503;DHT22;14177;51.520;6.764;2023-09-30T13:28:40;21.80;99.90
26503;DHT22;14177;51.520;6.764;2023-09-30T13:31:07;21.80;99.90
26503;DHT22;14177;51.520;6.764;2023-09-30T13:33:35;21.80;99.90
26503;DHT22;14177;51.520;6.764;2023-09-30T13:36:02;21.80;99.90
26503;DHT22;14177;51.520;6.764;2023-09-30T13:38:29;21.70;99.90
26503;DHT22;14177;51.520;6.764;2023-09-30T13:40:56;21.40;99.90
26503;DHT22;14177;51.520;6.764;2023-09-30T13:43:23;21.40;99.90
26503;DHT22;14177;51.520;6.764;2023-09-30T13:45:50;21.50;99.90
26503;DHT22;14177;51.520;6.764;2023-09-30T13:48:17;21.50;99.90
26503;DHT22;14177;51.520;6.764;2023-09-30T13:50:44;21.40;99.90
26503;DHT22;14177;51.520;6.764;2023-09-30T13:53:11;21.20;99.90
26503;DHT22;14177;51.520;6.764;2023-09-30T13:55:38;21.20;99.90
26503;DHT22;14177;51.520;6.764;2023-09-30T13:58:06;21.20;99.90
26503;DHT22;14177;51.520;6.764;2023-09-30T14:00:33;21.30;99.90
26503;DHT22;14177;51.520;6.764;2023-09-30T14:03:01;21.30;99.90
26503;DHT22;14177;51.520;6.764;2023-09-30T14:05:28;21.40;99.90
26503;DHT22;14177;51.520;6.764;2023-09-30T14:07:55;21.50;99.90
26503;DHT22;14177;51.520;6.764;2023-09-30T14:10:22;21.80;99.90
26503;DHT22;14177;51.520;6.764;2023-09-30T14:12:50;21.90;99.90
26503;DHT22;14177;51.520;6.764;2023-09-30T14:15:17;21.70;99.90
26503;DHT22;14177;51.520;6.764;2023-09-30T14:17:44;21.80;99.90
26503;DHT22;14177;51.520;6.764;2023-09-30T14:20:11;21.70;99.90
26503;DHT22;14177;51.520;6.764;2023-09-30T14:22:39;21.90;99.90
26503;DHT22;14177;51.520;6.764;2023-09-30T14:25:07;21.80;99.90
26503;DHT22;14177;51.520;6.764;2023-09-30T14:27:34;21.70;99.90
26503;DHT22;14177;51.520;6.764;2023-09-30T14:30:01;21.70;99.90
26503;DHT22;14177;51.520;6.764;2023-09-30T14:32:34;21.50;99.90
26503;DHT22;14177;51.520;6.764;2023-09-30T14:35:01;21.50;99.90
26503;DHT22;14177;51.520;6.764;2023-09-30T14:37:32;21.30;99.90
26503;DHT22;14177;51.520;6.764;2023-09-30T14:39:59;21.20;99.90
26503;DHT22;14177;51.520;6.764;2023-09-30T14:42:26;21.00;99.90
26503;DHT22;14177;51.520;6.764;2023-09-30T14:44:56;20.90;99.90
26503;DHT22;14177;51.520;6.764;2023-09-30T14:47:23;21.00;99.90
26503;DHT22;14177;51.520;6.764;2023-09-30T14:49:50;21.00;99.90
26503;DHT22;14177;51.520;6.764;2023-09-30T14:52:17;20.70;99.90
26503;DHT22;14177;51.520;6.764;2023-09-30T14:54:44;20.60;99.90
26503;DHT22;14177;51.520;6.764;2023-09-30T14:57:11;21.00;99.90
26503;DHT22;14177;51.520;6.764;2023-09-30T14:59:40;21.00;99.90
26503;DHT22;14177;51.520;6.764;2023-09-30T15:02:07;20.80;99.90
26503;DHT22;14177;51.520;6.764;2023-09-30T15:04:37;20.80;99.90
26503;DHT22;14177;51.520;6.764;2023-09-30T15:07:04;21.10;99.90
26503;DHT22;14177;51.520;6.764;2023-09-30T15:09:32;21.40;99.90
26503;DHT22;14177;51.520;6.764;2023-09-30T15:11:59;21.60;99.90
26503;DHT22;14177;51.520;6.764;2023-09-30T15:14:26;21.70;99.90
26503;DHT22;14177;51.520;6.764;2023-09-30T15:16:53;21.60;99.90
26503;DHT22;14177;51.520;6.764;2023-09-30T15:19:20;21.50;99.90
26503;DHT22;14177;51.520;6.764;2023-09-30T15:21:48;21.50;99.90
26503;DHT22;14177;51.520;6.764;2023-09-30T15:24:16;21.30;99.90
26503;DHT22;14177;51.520;6.764;2023-09-30T15:26:43;21.20;99.90
26503;DHT22;14177;51.520;6.764;2023-09-30T15:29:11;21.00;99.90
26503;DHT22;14177;51.520;6.764;2023-09-30T15:31:37;21.00;99.90
26503;DHT22;14177;51.520;6.764;2023-09-30T15:34:05;21.00;99.90
26503;DHT22;14177;51.520;6.764;2023-09-30T15:36:32;21.00;99.90
26503;DHT22;14177;51.520;6.764;2023-09-30T15:39:00;20.80;99.90
26503;DHT22;14177;51.520;6.764;2023-09-30T15:41:28;20.70;99.90
26503;DHT22;14177;51.520;6.764;2023-09-30T15:43:58;20.50;99.90
26503;DHT22;14177;51.520;6.764;2023-09-30T15:46:27;20.30;99.90
26503;DHT22;14177;51.520;6.764;2023-09-30T15:48:54;20.30;99.90
26503;DHT22;14177;51.520;6.764;2023-09-30T15:51:21;20.20;99.90
26503;DHT22;14177;51.520;6.764;2023-09-30T15:53:48;20.10;99.90
26503;DHT22;14177;51.520;6.764;2023-09-30T15:56:15;20.10;99.90
26503;DHT22;14177;51.520;6.764;2023-09-30T15:58:42;20.00;99.90
26503;DHT22;14177;51.520;6.764;2023-09-30T16:01:13;19.90;99.90
26503;DHT22;14177;51.520;6.764;2023-09-30T16:03:40;19.90;99.90
26503;DHT22;14177;51.520;6.764;2023-09-30T16:06:09;19.80;99.90